ADDS METAR Data INFO
IDs: Format: Raw Decoded Include TAF

Data at: 1236 UTC 22 Feb 2018

PPIT 221156Z AUTO 21014KT 4SM -SN BR OVC004 01/01 A2997 RMK AO2 SLP149 P0000 60000 70002 T00060006 10006 20000 55006 FZRANO TSNO
PPIT 221112Z AUTO 20014KT 4SM -SN BR OVC004 01/00 A2997 RMK AO2 P0000 FZRANO TSNO
PPIT 221056Z AUTO 19014KT 4SM -SN BR OVC006 01/01 A2997 RMK AO2 RAE21B44E51SNB51 SLP148 P0000 T00060006 FZRANO TSNO
PPIT 221039Z AUTO 19015KT 9SM OVC006 01/01 A2997 RMK AO2 RAE21 P0000 FZRANO TSNO
PPIT 220956Z AUTO 19015KT 7SM -RA OVC004 01/01 A2997 RMK AO2 RAE00B22 SLP150 P0000 T00060006 FZRANO TSNO
PPIT 220856Z AUTO 19015G21KT 9SM -RA OVC004 01/01 A2999 RMK AO2 UPB27E40RAB51SNB40E51 SLP154 P0000 60000 T00060006 400110000 56005 FZRANO TSNO
PPIT 220756Z AUTO 18017KT 3SM BR OVC004 00/00 A2999 RMK AO2 SLP155 T00000000 FZRANO TSNO
PPIT 220748Z AUTO 19018KT 2SM BR OVC004 00/00 A2999 RMK AO2 FZRANO TSNO
PPIT 220656Z AUTO 19016KT 10SM OVC004 01/01 A3000 RMK AO2 SLP159 T00060006 FZRANO TSNO
PPIT 220645Z AUTO 19015KT 10SM OVC004 01/01 A3001 RMK AO2 FZRANO TSNO
PPIT 220556Z AUTO 19017KT 6SM BR OVC002 01/01 A3000 RMK AO2 SLP160 60000 T00060006 10011 20006 58007 FZRANO TSNO
PPIT 220456Z AUTO 20018KT 4SM BR OVC002 01/01 A3002 RMK AO2 UPE03 SLP165 P0000 T00060006 FZRANO TSNO
PPIT 220437Z AUTO 21018KT 3SM BR OVC002 01/01 A3002 RMK AO2 UPE03 P0000 FZRANO TSNO
PPIT 220356Z AUTO 21017KT 1SM UP BR OVC002 01/01 A3002 RMK AO2 UPE05B50 SLP167 P0000 T00060006 FZRANO TSNO
PPIT 212356Z AUTO 18021G27KT 6SM -RA BR OVC004 01/01 A3007 RMK AO2 PK WND 18027/2356 SLP184 P0001 60001 T00110011 10011 20006 58014 FZRANO TSNO
PPIT 212256Z AUTO 18020KT 5SM -RA BR OVC004 01/01 A3010 RMK AO2 PK WND 18027/2203 RAB07 SLP191 P0000 T00110011 FZRANO TSNO
PPIT 212156Z AUTO 18022G26KT 10SM OVC004 01/01 A3011 RMK AO2 PK WND 18028/2124 SLP197 T00110011 FZRANO TSNO
PPIT 212137Z AUTO 18021G27KT 10SM OVC004 01/01 A3012 RMK AO2 PK WND 18028/2124 FZRANO TSNO
PPIT 212056Z AUTO 18017KT 5SM BR OVC002 01/01 A3012 RMK AO2 RAB1958E11UPB11E17 PRESFR SLP198 P0000 60000 T00110011 58012 FZRANO TSNO
PPIT 212054Z AUTO 18017KT 4SM BR OVC002 01/01 A3012 RMK AO2 RAB1958E11UPB11E17 P0000 FZRANO TSNO
PPIT 212042Z AUTO 19014KT 2SM BR OVC002 01/01 A3013 RMK AO2 RAB1958E11UPB11E17 P0000 FZRANO TSNO
PPIT 211956Z AUTO 18015G22KT 4SM BR OVC002 01/01 A3015 RMK AO2 SLP209 T00110011 FZRANO TSNO
PPIT 211954Z AUTO 19016KT 3SM BR OVC002 01/01 A3015 RMK AO2 FZRANO TSNO
PPIT 211936Z AUTO 18017KT 2SM BR OVC002 01/01 A3015 RMK AO2 FZRANO TSNO
PPIT 211925Z AUTO 18016KT 1 1/4SM BR OVC002 01/01 A3016 RMK AO2 FZRANO TSNO
PPIT 211913Z AUTO 18014KT 3/4SM BR OVC002 01/01 A3016 RMK AO2 FZRANO TSNO
PPIT 211856Z AUTO 18018KT 1 3/4SM BR OVC002 01/01 A3016 RMK AO2 RAE15 SLP212 P0000 T00110011 FZRANO TSNO
PPIT 211848Z AUTO 18018G23KT 2 1/2SM BR OVC002 01/01 A3015 RMK AO2 RAE15 P0000 FZRANO TSNO
PPIT 211834Z AUTO 19018KT 1 1/4SM BR OVC002 01/01 A3016 RMK AO2 RAE15 P0000 FZRANO TSNO
PPIT 211828Z AUTO 18016KT 3/4SM BR OVC002 01/01 A3015 RMK AO2 RAE15 P0000 FZRANO TSNO
PPIT 211809Z AUTO 19016KT 1/2SM -RA FG OVC002 01/01 A3016 RMK AO2 P0000 FZRANO TSNO
PPIT 211756Z AUTO 19016KT 1SM -RA BR OVC002 01/01 A3016 RMK AO2 UPE47RAB47 SLP212 P0000 60001 T00060006 10011 20006 53002 FZRANO TSNO
PPIT 211737Z AUTO 19017KT 1SM UP BR OVC002 01/01 A3015 RMK AO2 P0000 FZRANO TSNO
PPIT 211656Z AUTO 18016KT 1 1/4SM UP BR OVC002 01/01 A3015 RMK AO2 UPE22B39RAB22E39 SLP208 P0000 T00110006 FZRANO TSNO
PPIT 211645Z AUTO 18017KT 1 1/4SM UP BR OVC002 01/01 A3015 RMK AO2 UPE22B39RAB22E39 P0000 FZRANO TSNO
PPIT 211615Z AUTO 19017KT 1SM UP BR OVC002 01/01 A3015 RMK AO2 P0000 FZRANO TSNO
PPIT 211556Z AUTO 19017KT 2SM UP BR OVC002 01/01 A3016 RMK AO2 RAE25UPB13E15B39 SLP213 P0000 T00110011 FZRANO TSNO
PPIT 211542Z AUTO 19017KT 2 1/2SM UP BR OVC004 01/01 A3015 RMK AO2 RAE25UPB13E15B39 P0000 FZRANO TSNO
PPIT 211456Z AUTO 19018KT 3SM -RA BR OVC004 01/01 A3015 RMK AO2 PK WND 18027/1438 UPB38E46 SLP210 P0000 60001 T00110011 56014 FZRANO TSNO
PPIT 211424Z AUTO 19019G26KT 3SM -RA BR OVC004 01/01 A3015 RMK AO2 PK WND 19027/1403 P0000 FZRANO TSNO
PPIT 211356Z AUTO 19018G27KT 2SM -RA BR OVC004 01/01 A3016 RMK AO2 PK WND 19029/1257 RAE04B25UPB20E25SNB04E20 SLP212 P0000 T00110011 FZRANO TSNO
PPIT 211256Z AUTO 19025G31KT 10SM -RA OVC004 01/01 A3017 RMK AO2 PK WND 19031/1253 SLP216 P0001 T00110011 FZRANO TSNO
PPIT 210756Z AUTO 12011KT 10SM FEW039 BKN065 OVC080 00/M02 A3031 RMK AO2 SLP262 T00001017 FZRANO TSNO
PPIT 210656Z AUTO 11012KT 10SM BKN035 BKN041 OVC110 M01/M02 A3033 RMK AO2 SLP271 T10061017 FZRANO TSNO
PPIT 210556Z AUTO 11011KT 10SM OVC039 00/M01 A3036 RMK AO2 SLP281 T00001011 10000 21011 56027 FZRANO TSNO